createdAt,value
2023-09-12T00:02:27.913Z,17.60
2023-09-12T00:04:55.801Z,19.42
2023-09-12T00:07:25.058Z,20.42
2023-09-12T00:09:52.836Z,22.00
2023-09-12T00:12:24.432Z,22.73
2023-09-12T00:14:51.784Z,22.55
2023-09-12T00:17:19.636Z,20.33
2023-09-12T00:19:47.390Z,23.63
2023-09-12T00:22:15.124Z,20.77
2023-09-12T00:24:44.532Z,14.55
2023-09-12T00:27:12.434Z,18.65
2023-09-12T00:29:40.431Z,17.73
2023-09-12T00:32:08.083Z,20.00
2023-09-12T00:34:36.117Z,17.52
2023-09-12T00:37:04.360Z,21.60
2023-09-12T00:39:32.453Z,17.27
2023-09-12T00:42:02.145Z,14.65
2023-09-12T00:44:30.022Z,19.88
2023-09-12T00:46:57.900Z,17.30
2023-09-12T00:49:27.717Z,21.40
2023-09-12T00:51:57.782Z,20.40
2023-09-12T00:54:26.684Z,18.15
2023-09-12T00:56:55.133Z,17.35
2023-09-12T00:59:24.445Z,17.45
2023-09-12T01:01:52.377Z,27.23
2023-09-12T01:04:34.428Z,24.52
2023-09-12T01:07:04.589Z,25.00
2023-09-12T01:09:32.284Z,17.98
2023-09-12T01:12:01.007Z,14.98
2023-09-12T01:14:30.912Z,13.75
2023-09-12T01:16:59.055Z,11.77
2023-09-12T01:19:26.963Z,17.85
2023-09-12T01:22:14.784Z,19.95
2023-09-12T01:25:12.385Z,14.90
2023-09-12T01:27:47.808Z,24.58
2023-09-12T01:30:22.462Z,16.20
2023-09-12T01:32:51.921Z,21.70
2023-09-12T01:35:20.374Z,20.48
2023-09-12T01:37:48.346Z,18.67
2023-09-12T01:40:16.438Z,21.25
2023-09-12T01:42:47.668Z,22.10
2023-09-12T01:45:19.355Z,18.02
2023-09-12T01:47:51.136Z,19.13
2023-09-12T01:50:20.609Z,15.13
2023-09-12T01:52:48.906Z,20.08
2023-09-12T01:55:18.835Z,16.48
2023-09-12T01:57:47.833Z,15.88
2023-09-12T02:00:15.255Z,17.65
2023-09-12T02:02:42.494Z,23.92
2023-09-12T02:05:12.907Z,19.42
2023-09-12T02:07:42.431Z,18.83
2023-09-12T02:10:09.852Z,17.27
2023-09-12T02:12:37.371Z,15.93
2023-09-12T02:15:07.356Z,13.32
2023-09-12T02:17:34.688Z,21.88
2023-09-12T02:20:01.952Z,21.63
2023-09-12T02:22:29.183Z,19.77
2023-09-12T02:24:56.410Z,23.75
2023-09-12T02:27:23.637Z,22.15
2023-09-12T02:29:51.489Z,13.85
2023-09-12T02:32:20.357Z,17.33
2023-09-12T02:34:47.602Z,14.65
2023-09-12T02:37:14.880Z,22.83
2023-09-12T02:39:42.312Z,15.85
2023-09-12T02:42:10.113Z,14.68
2023-09-12T02:44:37.350Z,20.50
2023-09-12T02:47:05.042Z,19.23
2023-09-12T02:49:34.993Z,21.50
2023-09-12T02:52:02.298Z,15.52
2023-09-12T02:54:29.594Z,17.80
2023-09-12T02:56:56.929Z,16.60
2023-09-12T02:59:24.249Z,14.15
2023-09-12T03:01:51.502Z,13.73
2023-09-12T03:04:18.905Z,15.95
2023-09-12T03:06:47.618Z,17.60
2023-09-12T03:09:15.068Z,14.90
2023-09-12T03:11:42.328Z,17.65
2023-09-12T03:14:09.578Z,16.90
2023-09-12T03:16:36.849Z,15.77
2023-09-12T03:19:04.346Z,13.93
2023-09-12T03:21:31.842Z,20.75
2023-09-12T03:24:00.561Z,21.00
2023-09-12T03:26:27.943Z,28.08
2023-09-12T03:28:55.221Z,22.33
2023-09-12T03:31:23.141Z,16.48
2023-09-12T03:33:51.007Z,18.00
2023-09-12T03:36:19.607Z,20.55
2023-09-12T03:38:47.650Z,19.40
2023-09-12T03:41:16.282Z,13.35
2023-09-12T03:43:43.689Z,14.68
2023-09-12T03:46:10.999Z,13.85
2023-09-12T03:48:38.661Z,15.65
2023-09-12T03:51:06.043Z,12.50
2023-09-12T03:53:33.364Z,12.68
2023-09-12T03:56:00.619Z,17.65
2023-09-12T03:58:29.947Z,16.85
2023-09-12T04:00:57.330Z,15.88
2023-09-12T04:03:24.744Z,16.52
2023-09-12T04:05:52.295Z,15.02
2023-09-12T04:08:19.525Z,15.63
2023-09-12T04:10:46.906Z,18.98
2023-09-12T04:13:14.151Z,19.00
2023-09-12T04:15:42.832Z,17.45
2023-09-12T04:18:10.277Z,16.35
2023-09-12T04:20:37.776Z,19.90
2023-09-12T04:23:06.181Z,14.30
2023-09-12T04:25:33.805Z,17.38
2023-09-12T04:28:01.427Z,24.73
2023-09-12T04:30:29.115Z,17.05
2023-09-12T04:32:58.345Z,21.92
2023-09-12T04:35:25.713Z,18.48
2023-09-12T04:37:53.061Z,15.23
2023-09-12T04:40:20.293Z,19.45
2023-09-12T04:42:47.642Z,14.57
2023-09-12T04:45:15.072Z,14.50
2023-09-12T04:47:42.458Z,14.35
2023-09-12T04:50:11.220Z,12.93
2023-09-12T04:52:38.477Z,14.13
2023-09-12T04:55:06.683Z,16.35
2023-09-12T04:57:34.070Z,17.65
2023-09-12T05:00:01.374Z,14.40
2023-09-12T05:02:28.975Z,15.15
2023-09-12T05:04:56.514Z,13.55
2023-09-12T05:07:26.256Z,17.33
2023-09-12T05:09:53.670Z,11.68
2023-09-12T05:12:21.308Z,12.80
2023-09-12T05:14:48.550Z,16.35
2023-09-12T05:17:15.874Z,14.23
2023-09-12T05:19:43.200Z,14.80
2023-09-12T05:22:10.426Z,16.50
2023-09-12T05:24:39.062Z,19.75
2023-09-12T05:27:06.392Z,21.63
2023-09-12T05:29:33.855Z,17.65
2023-09-12T05:32:01.228Z,18.15
2023-09-12T05:34:28.577Z,18.98
2023-09-12T05:36:57.598Z,18.70
2023-09-12T05:39:24.897Z,20.70
2023-09-12T05:41:53.900Z,20.50
2023-09-12T05:44:21.146Z,16.95
2023-09-12T05:46:49.294Z,10.38
2023-09-12T05:49:16.725Z,12.23
2023-09-12T05:51:44.493Z,18.90
2023-09-12T05:54:12.267Z,18.48
2023-09-12T05:56:39.584Z,18.75
2023-09-12T05:59:08.301Z,23.50
2023-09-12T06:01:35.593Z,26.38
2023-09-12T06:04:03.093Z,25.48
2023-09-12T06:06:30.639Z,22.35
2023-09-12T06:08:57.924Z,27.83
2023-09-12T06:11:25.344Z,25.33
2023-09-12T06:13:52.622Z,21.80
2023-09-12T06:16:21.315Z,17.95
2023-09-12T06:18:48.837Z,20.48
2023-09-12T06:21:16.274Z,22.17
2023-09-12T06:23:43.607Z,18.40
2023-09-12T06:26:10.855Z,22.27
2023-09-12T06:28:38.188Z,21.65
2023-09-12T06:31:08.923Z,18.90
2023-09-12T06:33:38.754Z,16.63
2023-09-12T06:36:06.565Z,26.45
2023-09-12T06:38:33.798Z,18.23
2023-09-12T06:41:01.090Z,20.30
2023-09-12T06:43:28.428Z,21.20
2023-09-12T06:45:55.851Z,18.92
2023-09-12T06:48:23.182Z,19.13
2023-09-12T06:50:53.571Z,16.40
2023-09-12T06:53:21.574Z,18.85
2023-09-12T06:55:48.943Z,25.55
2023-09-12T06:58:16.259Z,23.02
2023-09-12T07:00:43.615Z,17.20
2023-09-12T07:03:12.268Z,18.90
2023-09-12T07:05:42.370Z,19.73
2023-09-12T07:08:11.248Z,21.48
2023-09-12T07:10:38.466Z,19.80
2023-09-12T07:13:05.772Z,21.75
2023-09-12T07:15:33.077Z,19.85
2023-09-12T07:18:00.344Z,16.95
2023-09-12T07:20:27.612Z,18.55
2023-09-12T07:22:54.840Z,16.30
2023-09-12T07:25:23.475Z,19.60
2023-09-12T07:27:50.784Z,16.85
2023-09-12T07:30:19.029Z,16.77
2023-09-12T07:32:46.357Z,17.40
2023-09-12T07:35:13.654Z,20.30
2023-09-12T07:37:40.846Z,18.25
2023-09-12T07:40:09.751Z,17.58
2023-09-12T07:42:38.439Z,17.30
2023-09-12T07:45:06.716Z,22.10
2023-09-12T07:47:34.140Z,15.93
2023-09-12T07:50:01.486Z,15.35
2023-09-12T07:52:30.067Z,14.48
2023-09-12T07:55:00.339Z,15.77
2023-09-12T07:57:28.889Z,14.27
2023-09-12T07:59:58.038Z,18.45
2023-09-12T08:02:25.360Z,13.32
2023-09-12T08:04:52.771Z,17.17
2023-09-12T08:07:20.310Z,17.15
2023-09-12T08:09:52.368Z,16.38
2023-09-12T08:12:21.228Z,14.50
2023-09-12T08:14:48.749Z,15.55
2023-09-12T08:17:17.835Z,15.02
2023-09-12T08:19:45.247Z,17.83
2023-09-12T08:22:13.527Z,16.45
2023-09-12T08:24:40.986Z,17.17
2023-09-12T08:27:08.802Z,18.15
2023-09-12T08:29:36.093Z,12.90
2023-09-12T08:32:03.543Z,14.57
2023-09-12T08:34:32.196Z,16.70
2023-09-12T08:36:59.446Z,13.05
2023-09-12T08:39:28.838Z,13.93
2023-09-12T08:41:56.257Z,19.52
2023-09-12T08:44:24.144Z,18.13
2023-09-12T08:46:51.824Z,15.55
2023-09-12T08:49:19.223Z,17.20
2023-09-12T08:51:47.928Z,15.85
2023-09-12T08:54:15.235Z,13.18
2023-09-12T08:56:44.231Z,111.28
2023-09-12T08:59:11.738Z,94.53
2023-09-12T09:01:39.678Z,19.10
2023-09-12T09:04:07.757Z,17.42
2023-09-12T09:06:36.601Z,12.93
2023-09-12T09:09:08.255Z,12.20
2023-09-12T09:11:35.711Z,17.02
2023-09-12T09:14:03.384Z,14.82
2023-09-12T09:16:31.465Z,20.02
2023-09-12T09:19:00.466Z,16.13
2023-09-12T09:21:29.079Z,12.05
2023-09-12T09:23:56.791Z,11.68
2023-09-12T09:26:25.450Z,11.15
2023-09-12T09:29:07.335Z,14.50
2023-09-12T09:31:34.776Z,15.48
2023-09-12T09:34:02.616Z,15.38
2023-09-12T09:36:29.989Z,10.75
2023-09-12T09:38:58.421Z,12.95
2023-09-12T09:41:27.640Z,12.93
2023-09-12T09:43:54.951Z,14.63
2023-09-12T09:46:22.354Z,18.88
2023-09-12T09:48:50.549Z,12.77
2023-09-12T09:51:18.226Z,10.60
2023-09-12T09:53:45.525Z,15.27
2023-09-12T09:56:14.049Z,11.52
2023-09-12T09:58:49.083Z,12.68
2023-09-12T10:01:19.472Z,14.80
2023-09-12T10:03:47.650Z,13.63
2023-09-12T10:06:16.517Z,12.32
2023-09-12T10:08:45.200Z,10.43
2023-09-12T10:11:15.401Z,14.00
2023-09-12T10:13:50.181Z,16.23
2023-09-12T10:16:20.699Z,12.07
2023-09-12T10:18:58.130Z,11.23
2023-09-12T10:21:30.730Z,11.48
2023-09-12T10:24:00.248Z,13.23
2023-09-12T10:26:28.459Z,11.55
2023-09-12T10:28:56.088Z,15.40
2023-09-12T10:31:25.369Z,16.75
2023-09-12T10:33:53.109Z,11.77
2023-09-12T10:36:21.464Z,38.55
2023-09-12T10:38:49.855Z,16.33
2023-09-12T10:41:17.642Z,41.88
2023-09-12T10:43:46.334Z,23.85
2023-09-12T10:46:13.643Z,15.93
2023-09-12T10:48:42.690Z,13.25
2023-09-12T10:51:11.787Z,10.48
2023-09-12T10:53:39.203Z,13.35
2023-09-12T10:56:18.621Z,13.23
2023-09-12T10:59:09.880Z,14.93
2023-09-12T11:04:34.579Z,10.23
2023-09-12T11:07:02.533Z,13.65
2023-09-12T11:09:30.307Z,17.60
2023-09-12T11:11:59.923Z,12.30
2023-09-12T11:14:27.203Z,13.63
2023-09-12T11:17:22.942Z,10.70
2023-09-12T11:19:52.598Z,9.65
2023-09-12T11:22:27.362Z,13.55
2023-09-12T11:24:55.066Z,11.00
2023-09-12T11:27:22.942Z,14.70
2023-09-12T11:29:50.344Z,12.30
2023-09-12T11:32:28.489Z,11.00
2023-09-12T11:34:57.176Z,12.73
2023-09-12T11:37:25.680Z,10.55
2023-09-12T11:39:54.170Z,13.48
2023-09-12T11:42:21.815Z,12.18
2023-09-12T11:44:50.408Z,8.60
2023-09-12T11:47:17.756Z,13.45
2023-09-12T11:49:45.096Z,13.15
2023-09-12T11:52:14.789Z,19.45
2023-09-12T11:54:42.296Z,14.55
2023-09-12T11:57:11.352Z,12.38
2023-09-12T11:59:39.581Z,11.05
2023-09-12T12:02:08.058Z,14.80
2023-09-12T12:04:35.939Z,12.57
2023-09-12T12:07:04.531Z,10.85
2023-09-12T12:09:33.786Z,12.45
2023-09-12T12:12:05.386Z,11.40
2023-09-12T12:14:35.112Z,13.68
2023-09-12T12:17:06.992Z,13.15
2023-09-12T12:19:34.436Z,10.38
2023-09-12T12:22:01.778Z,14.75
2023-09-12T12:24:39.248Z,12.70
2023-09-12T12:27:06.786Z,8.75
2023-09-12T12:29:35.704Z,9.30
2023-09-12T12:32:03.650Z,16.30
2023-09-12T12:35:41.715Z,13.15
2023-09-12T12:37:18.149Z,11.85
2023-09-12T12:39:46.998Z,12.02
2023-09-12T12:42:14.371Z,14.57
2023-09-12T12:44:41.585Z,14.77
2023-09-12T12:47:10.067Z,13.52
2023-09-12T12:49:38.325Z,13.05
2023-09-12T12:52:06.228Z,10.95
2023-09-12T12:54:33.597Z,14.32
2023-09-12T12:57:02.554Z,11.18
2023-09-12T12:59:29.882Z,9.48
2023-09-12T13:01:57.121Z,13.95
2023-09-12T13:04:25.526Z,9.57
2023-09-12T13:06:52.834Z,11.35
2023-09-12T13:09:20.124Z,11.25
2023-09-12T13:11:47.400Z,13.13
2023-09-12T13:14:16.109Z,11.10
2023-09-12T13:16:43.396Z,8.82
2023-09-12T13:19:10.939Z,12.35
2023-09-12T13:21:38.166Z,12.70
2023-09-12T13:24:05.726Z,10.60
2023-09-12T13:26:32.977Z,9.88
2023-09-12T13:29:00.210Z,8.98
2023-09-12T13:31:28.854Z,12.35
2023-09-12T13:33:56.334Z,15.35
2023-09-12T13:36:23.755Z,10.18
2023-09-12T13:38:51.153Z,11.23
2023-09-12T13:41:18.597Z,12.68
2023-09-12T13:43:46.063Z,12.30
2023-09-12T13:46:13.640Z,9.50
2023-09-12T13:48:42.258Z,10.85
2023-09-12T13:51:09.490Z,14.15
2023-09-12T13:53:36.759Z,12.85
2023-09-12T13:56:04.288Z,14.13
2023-09-12T13:58:40.788Z,14.35
2023-09-12T14:01:16.562Z,13.25
2023-09-12T14:03:47.296Z,12.18
2023-09-12T14:06:15.162Z,16.08
2023-09-12T14:08:42.436Z,12.73
2023-09-12T14:11:23.237Z,16.70
2023-09-12T14:14:10.237Z,11.25
2023-09-12T14:16:41.931Z,13.13
2023-09-12T14:19:12.119Z,11.43
2023-09-12T14:21:39.593Z,13.10
2023-09-12T14:24:07.622Z,10.55
2023-09-12T14:26:35.107Z,13.43
2023-09-12T14:29:03.132Z,16.90
2023-09-12T14:31:30.686Z,8.43
2023-09-12T14:33:57.943Z,11.98
2023-09-12T14:36:26.582Z,10.65
2023-09-12T14:38:55.918Z,13.95
2023-09-12T14:41:23.479Z,14.65
2023-09-12T14:43:50.865Z,12.43
2023-09-12T14:46:18.262Z,11.13
2023-09-12T14:48:53.774Z,11.93
2023-09-12T14:51:31.809Z,13.45
2023-09-12T14:54:00.999Z,11.70
2023-09-12T14:56:28.395Z,14.63
2023-09-12T14:58:55.615Z,13.63
2023-09-12T15:01:22.957Z,17.73
2023-09-12T15:03:50.318Z,15.40
2023-09-12T15:06:19.666Z,12.25
2023-09-12T15:08:50.068Z,15.30
2023-09-12T15:11:17.325Z,15.57
2023-09-12T15:13:44.710Z,13.45
2023-09-12T15:16:12.640Z,15.43
2023-09-12T15:18:40.161Z,13.30
2023-09-12T15:21:07.458Z,14.98
2023-09-12T15:23:34.904Z,13.77
2023-09-12T15:26:03.504Z,16.75
2023-09-12T15:28:30.834Z,11.07
2023-09-12T15:30:58.273Z,13.68
2023-09-12T15:33:25.803Z,14.27
2023-09-12T15:35:53.124Z,8.43
2023-09-12T15:38:20.543Z,11.93
2023-09-12T15:40:47.839Z,11.52
2023-09-12T15:43:24.885Z,13.35
2023-09-12T15:45:52.920Z,11.40
2023-09-12T15:48:20.320Z,15.98
2023-09-12T15:50:47.803Z,13.88
2023-09-12T15:53:15.112Z,15.43
2023-09-12T15:55:42.370Z,17.75
2023-09-12T15:58:09.673Z,13.32
2023-09-12T16:00:38.417Z,12.25
2023-09-12T16:03:06.138Z,11.70
2023-09-12T16:05:33.529Z,12.75
2023-09-12T16:08:00.775Z,11.07
2023-09-12T16:10:28.031Z,14.02
2023-09-12T16:12:55.361Z,15.27
2023-09-12T16:15:22.747Z,13.93
2023-09-12T16:17:51.426Z,12.60
2023-09-12T16:20:18.717Z,14.38
2023-09-12T16:22:46.139Z,12.52
2023-09-12T16:25:13.685Z,14.23
2023-09-12T16:27:40.944Z,13.55
2023-09-12T16:30:09.105Z,13.48
2023-09-12T16:32:39.547Z,15.48
2023-09-12T16:35:09.008Z,14.60
2023-09-12T16:37:36.494Z,12.43
2023-09-12T16:40:04.427Z,13.35
2023-09-12T16:42:32.046Z,12.35
2023-09-12T16:44:59.737Z,12.68
2023-09-12T16:47:27.175Z,10.70
2023-09-12T16:49:54.890Z,14.20
2023-09-12T16:52:23.597Z,13.30
2023-09-12T16:54:50.946Z,11.82
2023-09-12T16:57:18.243Z,14.07
2023-09-12T16:59:46.003Z,14.93
2023-09-12T17:02:13.931Z,16.10
2023-09-12T17:04:41.984Z,13.98
2023-09-12T17:07:09.518Z,12.73
2023-09-12T17:09:39.149Z,16.77
2023-09-12T17:12:07.523Z,20.83
2023-09-12T17:14:34.902Z,10.98
2023-09-12T17:17:02.383Z,17.17
2023-09-12T17:19:29.695Z,14.95
2023-09-12T17:21:56.928Z,13.55
2023-09-12T17:24:24.349Z,16.25
2023-09-12T17:26:53.133Z,15.30
2023-09-12T17:29:20.387Z,11.60
2023-09-12T17:31:47.814Z,15.23
2023-09-12T17:34:15.833Z,15.68
2023-09-12T17:36:43.522Z,13.65
2023-09-12T17:39:10.799Z,15.30
2023-09-12T17:41:38.133Z,16.10
2023-09-12T17:44:06.867Z,21.00
2023-09-12T17:46:34.319Z,12.93
2023-09-12T17:49:01.690Z,14.82
2023-09-12T17:51:29.065Z,15.68
2023-09-12T17:53:56.377Z,12.63
2023-09-12T17:56:23.691Z,16.98
2023-09-12T17:58:50.954Z,14.40
2023-09-12T18:01:19.844Z,11.38
2023-09-12T18:03:47.582Z,14.73
2023-09-12T18:06:15.176Z,12.80
2023-09-12T18:08:42.430Z,15.20
2023-09-12T18:11:09.815Z,15.57
2023-09-12T18:13:37.040Z,19.33
2023-09-12T18:16:04.344Z,15.88
2023-09-12T18:18:33.432Z,13.55
2023-09-12T18:21:00.761Z,16.48
2023-09-12T18:23:27.976Z,12.43
2023-09-12T18:25:59.891Z,17.65
2023-09-12T18:28:39.627Z,14.38
2023-09-12T18:31:08.170Z,18.42
2023-09-12T18:33:37.324Z,12.13
2023-09-12T18:36:04.990Z,16.75
2023-09-12T18:38:32.255Z,15.57
2023-09-12T18:40:59.492Z,15.93
2023-09-12T18:43:26.732Z,14.30
2023-09-12T18:45:53.968Z,13.68
2023-09-12T18:48:21.443Z,14.45
2023-09-12T18:50:50.217Z,15.23
2023-09-12T18:53:17.744Z,17.23
2023-09-12T18:55:45.100Z,17.25
2023-09-12T18:58:12.525Z,15.95
2023-09-12T19:00:39.927Z,13.30
2023-09-12T19:03:08.660Z,17.65
2023-09-12T19:05:36.025Z,19.10
2023-09-12T19:08:05.187Z,14.20
2023-09-12T19:10:32.634Z,18.25
2023-09-12T19:12:59.933Z,18.20
2023-09-12T19:15:27.324Z,14.38
2023-09-12T19:17:54.807Z,15.75
2023-09-12T19:20:22.117Z,19.50
2023-09-12T19:22:49.390Z,15.80
2023-09-12T19:25:17.958Z,17.30
2023-09-12T19:27:45.239Z,19.65
2023-09-12T19:30:12.643Z,21.67
2023-09-12T19:32:40.278Z,23.25
2023-09-12T19:35:08.841Z,18.17
2023-09-12T19:37:36.361Z,19.13
2023-09-12T19:40:07.269Z,25.48
2023-09-12T19:42:36.390Z,19.63
2023-09-12T19:45:04.103Z,17.63
2023-09-12T19:47:32.041Z,21.33
2023-09-12T19:50:00.108Z,15.82
2023-09-12T19:52:27.430Z,18.65
2023-09-12T19:54:54.665Z,20.20
2023-09-12T19:57:21.907Z,20.40
2023-09-12T19:59:50.621Z,19.83
2023-09-12T20:02:17.973Z,21.15
2023-09-12T20:04:45.325Z,16.70
2023-09-12T20:07:12.585Z,18.30
2023-09-12T20:09:39.915Z,15.68
2023-09-12T20:12:07.587Z,25.00
2023-09-12T20:14:35.674Z,18.20
2023-09-12T20:17:04.619Z,18.65
2023-09-12T20:19:31.947Z,20.20
2023-09-12T20:21:59.276Z,21.13
2023-09-12T20:24:26.992Z,16.98
2023-09-12T20:26:54.217Z,10.15
2023-09-12T20:29:21.461Z,13.10
2023-09-12T20:31:48.718Z,10.43
2023-09-12T20:34:17.404Z,12.60
2023-09-12T20:36:44.742Z,10.57
2023-09-12T20:39:23.525Z,9.68
2023-09-12T20:41:50.763Z,3.65
2023-09-12T20:44:18.033Z,6.70
2023-09-12T20:46:45.370Z,5.20
2023-09-12T20:49:12.841Z,3.70
2023-09-12T20:51:45.301Z,7.28
2023-09-12T20:54:13.032Z,4.93
2023-09-12T20:56:41.108Z,5.00
2023-09-12T20:59:08.506Z,3.45
2023-09-12T21:01:36.238Z,9.68
2023-09-12T21:04:03.972Z,5.15
2023-09-12T21:06:31.773Z,4.47
2023-09-12T21:09:00.357Z,5.30
2023-09-12T21:11:27.598Z,4.40
2023-09-12T21:13:54.809Z,10.55
2023-09-12T21:16:22.103Z,3.88
2023-09-12T21:18:49.474Z,5.28
2023-09-12T21:21:16.733Z,3.03
2023-09-12T21:23:44.186Z,4.53
2023-09-12T21:26:12.929Z,4.22
2023-09-12T21:28:40.146Z,4.07
2023-09-12T21:31:07.444Z,5.05
2023-09-12T21:33:34.795Z,5.80
2023-09-12T21:36:02.346Z,4.60
2023-09-12T21:38:29.563Z,6.10
2023-09-12T21:40:56.817Z,4.70
2023-09-12T21:43:25.557Z,4.43
2023-09-12T21:45:52.902Z,5.32
2023-09-12T21:48:20.796Z,3.35
2023-09-12T21:50:48.035Z,5.10
2023-09-12T21:53:15.276Z,5.78
2023-09-12T21:55:42.486Z,6.03
2023-09-12T21:58:09.709Z,5.72
2023-09-12T22:00:38.344Z,3.47
2023-09-12T22:03:06.434Z,7.15
2023-09-12T22:05:33.718Z,4.78
2023-09-12T22:08:00.951Z,4.22
2023-09-12T22:10:28.262Z,7.45
2023-09-12T22:12:55.555Z,4.32
2023-09-12T22:15:22.799Z,5.57
2023-09-12T22:17:51.397Z,7.95
2023-09-12T22:20:18.629Z,10.65
2023-09-12T22:22:47.113Z,7.00
2023-09-12T22:25:15.151Z,3.42
2023-09-12T22:27:43.313Z,3.85
2023-09-12T22:30:10.941Z,4.30
2023-09-12T22:32:39.268Z,4.65
2023-09-12T22:35:08.836Z,4.40
2023-09-12T22:37:36.148Z,6.72
2023-09-12T22:40:03.792Z,4.13
2023-09-12T22:42:31.037Z,3.17
2023-09-12T22:44:58.273Z,4.35
2023-09-12T22:47:25.632Z,8.55
2023-09-12T22:49:52.996Z,5.95
2023-09-12T22:52:21.612Z,1.45
2023-09-12T22:54:48.904Z,0.40
2023-09-12T22:57:16.160Z,0.25
2023-09-12T22:59:43.745Z,0.28
2023-09-12T23:02:10.973Z,1.00
2023-09-12T23:04:38.251Z,1.55
2023-09-12T23:07:05.615Z,0.20
2023-09-12T23:09:34.236Z,0.20
2023-09-12T23:12:02.163Z,0.20
2023-09-12T23:14:29.392Z,0.20
2023-09-12T23:16:56.594Z,0.82
2023-09-12T23:19:23.875Z,0.30
2023-09-12T23:21:51.262Z,0.20
2023-09-12T23:24:18.635Z,0.20
2023-09-12T23:26:47.261Z,0.20
2023-09-12T23:29:14.501Z,3.85
2023-09-12T23:31:41.789Z,0.43
2023-09-12T23:34:09.122Z,0.20
2023-09-12T23:36:36.377Z,0.30
2023-09-12T23:39:03.638Z,0.40
2023-09-12T23:41:30.986Z,0.30
2023-09-12T23:43:59.550Z,0.20
2023-09-12T23:46:26.913Z,0.20
2023-09-12T23:48:54.272Z,0.20
2023-09-12T23:51:21.606Z,0.20
2023-09-12T23:53:48.853Z,0.20
2023-09-12T23:56:16.080Z,0.20
2023-09-12T23:58:43.296Z,0.20
